Svyataya Anna — UUCV — position and weather

sailwx.info

Track history (hours):
 
Tides and Currents Weather Stations Pressure Air Temp Water Temp Dewpoint Dewpoint Depression Visibility Wind Speed Wind Dir Waves Ship Positions

Svyataya Anna

Last reported at 2016-Sep-13 22:33 UTC. Time now 2016-Sep-28 06:56 UTC.
Position N 45°24' E 036°41'.
Warning: this ship's position is 14 days out of date.

Length 93 m; draft 1.7 m.

Type: Cargo ship. MMSI: 272068800.

Date/timePositionNaut miles runAvg speedWind from/ knotsBaromVisibWave heightAir tempDewpointWater temp
2016-Sep-13 22:33N 45°24' E 036°41'11 5.4
2016-Sep-13 20:33N 45°18' E 036°29'12 5.7
2016-Sep-13 18:31N 45°06' E 036°30'5 5.2
2016-Sep-13 17:32N 45°01' E 036°31'  
2016-Sep-10 09:31N 45°10' E 036°29'5 5.5
2016-Sep-10 08:33N 45°15' E 036°28'5 4.9
2016-Sep-10 07:33N 45°19' E 036°32'5 5.1
2016-Sep-10 06:34N 45°21' E 036°38'5 4.7
2016-Sep-10 05:33N 45°26' E 036°40'5 4.9
2016-Sep-10 04:33N 45°30' E 036°39'5 5.1
2016-Sep-10 03:29N 45°36' E 036°40'  
Track history (hours):
 
Tides and Currents Weather Stations Pressure Air Temp Water Temp Dewpoint Dewpoint Depression Visibility Wind Speed Wind Dir Waves Ship Positions

Svyataya Anna

Last reported at 2016-Sep-13 22:33 UTC. Time now 2016-Sep-28 06:56 UTC.
Position N 45°24' E 036°41'.
Warning: this ship's position is 14 days out of date.

Length 93 m; draft 1.7 m.

Type: Cargo ship. MMSI: 272068800.

Date/timePositionNaut miles runAvg speedWind from/ knotsBaromVisibWave heightAir tempDewpointWater temp
2016-Sep-13 22:33N 45°24' E 036°41'11 5.4
2016-Sep-13 20:33N 45°18' E 036°29'12 5.7
2016-Sep-13 18:31N 45°06' E 036°30'5 5.2
2016-Sep-13 17:32N 45°01' E 036°31'  
2016-Sep-10 09:31N 45°10' E 036°29'5 5.5
2016-Sep-10 08:33N 45°15' E 036°28'5 4.9
2016-Sep-10 07:33N 45°19' E 036°32'5 5.1
2016-Sep-10 06:34N 45°21' E 036°38'5 4.7
2016-Sep-10 05:33N 45°26' E 036°40'5 4.9
2016-Sep-10 04:33N 45°30' E 036°39'5 5.1
2016-Sep-10 03:29N 45°36' E 036°40'  

Dump ship's entire track history